createdAt,value
2022-08-28T00:00:04.282Z,70.74
2022-08-28T00:02:31.355Z,71.31
2022-08-28T00:04:57.937Z,70.35
2022-08-28T00:07:25.382Z,70.45
2022-08-28T00:09:51.923Z,70.98
2022-08-28T00:12:18.602Z,70.79
2022-08-28T00:14:45.218Z,70.65
2022-08-28T00:17:11.876Z,70.67
2022-08-28T00:19:38.914Z,70.55
2022-08-28T00:22:07.430Z,70.38
2022-08-28T00:24:34.668Z,70.94
2022-08-28T00:27:19.607Z,69.79
2022-08-28T00:29:46.129Z,69.89
2022-08-28T00:32:13.783Z,68.84
2022-08-28T00:34:40.468Z,70.15
2022-08-28T00:37:07.079Z,68.69
2022-08-28T00:39:33.802Z,69.30
2022-08-28T00:42:00.319Z,68.82
2022-08-28T00:44:28.761Z,70.42
2022-08-28T00:46:57.623Z,70.96
2022-08-28T00:49:28.190Z,71.27
2022-08-28T00:52:08.642Z,71.14
2022-08-28T00:54:50.508Z,69.53
2022-08-28T00:57:30.763Z,70.39
2022-08-28T00:59:57.861Z,70.65
2022-08-28T01:02:24.567Z,70.66
2022-08-28T01:04:51.286Z,69.03
2022-08-28T01:07:18.160Z,68.62
2022-08-28T01:09:48.576Z,70.77
2022-08-28T01:12:21.615Z,70.30
2022-08-28T01:14:51.833Z,70.36
2022-08-28T01:17:23.646Z,70.15
2022-08-28T01:19:57.318Z,70.46
2022-08-28T01:22:31.088Z,70.64
2022-08-28T01:25:00.855Z,70.35
2022-08-28T01:27:27.856Z,68.96
2022-08-28T01:29:55.306Z,71.32
2022-08-28T01:32:36.226Z,69.47
2022-08-28T01:35:04.483Z,69.98
2022-08-28T01:37:31.954Z,70.71
2022-08-28T01:39:58.551Z,69.54
2022-08-28T01:42:25.967Z,70.36
2022-08-28T01:44:54.153Z,70.35
2022-08-28T01:47:22.226Z,68.66
2022-08-28T01:49:49.229Z,69.77
2022-08-28T01:52:15.766Z,70.30
2022-08-28T01:54:42.314Z,69.14
2022-08-28T01:57:08.985Z,70.85
2022-08-28T01:59:36.310Z,71.12
2022-08-28T02:02:03.995Z,69.37
2022-08-28T02:04:31.739Z,70.14
2022-08-28T02:06:59.007Z,70.33
2022-08-28T02:09:25.562Z,69.79
2022-08-28T02:11:52.691Z,71.33
2022-08-28T02:14:19.359Z,69.85
2022-08-28T02:16:46.512Z,69.28
2022-08-28T02:19:13.112Z,69.86
2022-08-28T02:21:40.414Z,69.26
2022-08-28T02:24:07.201Z,69.44
2022-08-28T02:26:33.774Z,68.85
2022-08-28T02:29:00.764Z,68.21
2022-08-28T02:31:28.056Z,69.18
2022-08-28T02:33:55.850Z,68.31
2022-08-28T02:36:23.185Z,68.69
2022-08-28T02:38:55.501Z,69.80
2022-08-28T02:41:23.775Z,69.22
2022-08-28T02:43:50.283Z,68.07
2022-08-28T02:46:17.021Z,68.71
2022-08-28T02:48:43.727Z,68.21
2022-08-28T02:51:13.332Z,68.46
2022-08-28T02:53:41.209Z,68.10
2022-08-28T02:56:08.197Z,68.63
2022-08-28T02:58:35.423Z,69.46
2022-08-28T03:01:07.901Z,68.67
2022-08-28T03:03:35.007Z,68.35
2022-08-28T03:06:04.305Z,68.11
2022-08-28T03:08:32.202Z,68.46
2022-08-28T03:10:59.496Z,69.90
2022-08-28T03:13:27.350Z,68.02
2022-08-28T03:15:55.826Z,68.69
2022-08-28T03:18:23.393Z,68.44
2022-08-28T03:20:50.034Z,68.95
2022-08-28T03:23:28.347Z,68.26
2022-08-28T03:25:58.234Z,70.19
2022-08-28T03:28:26.945Z,69.14
2022-08-28T03:30:54.168Z,67.98
2022-08-28T03:33:21.242Z,68.81
2022-08-28T03:35:48.410Z,69.41
2022-08-28T03:38:16.883Z,68.96
2022-08-28T03:40:46.365Z,69.17
2022-08-28T03:43:16.367Z,68.83
2022-08-28T03:45:53.382Z,69.79
2022-08-28T03:48:20.232Z,69.79
2022-08-28T03:50:47.919Z,69.31
2022-08-28T03:53:15.844Z,69.36
2022-08-28T03:55:42.547Z,68.89
2022-08-28T03:58:09.521Z,69.10
2022-08-28T04:00:36.332Z,69.11
2022-08-28T04:03:04.188Z,70.06
2022-08-28T04:05:30.735Z,68.85
2022-08-28T04:07:57.360Z,69.73
2022-08-28T04:10:23.895Z,69.18
2022-08-28T04:12:50.420Z,70.28
2022-08-28T04:15:17.110Z,70.55
2022-08-28T04:17:43.803Z,70.06
2022-08-28T04:20:11.133Z,70.55
2022-08-28T04:22:38.460Z,70.16
2022-08-28T04:25:06.629Z,69.95
2022-08-28T04:27:34.222Z,71.91
2022-08-28T04:30:00.788Z,70.80
2022-08-28T04:32:27.343Z,71.03
2022-08-28T04:34:54.019Z,71.85
2022-08-28T04:37:20.560Z,70.94
2022-08-28T04:39:49.318Z,71.27
2022-08-28T04:42:15.835Z,72.23
2022-08-28T04:44:42.375Z,70.91
2022-08-28T04:47:09.055Z,71.84
2022-08-28T04:49:36.044Z,71.61
2022-08-28T04:52:04.204Z,71.63
2022-08-28T04:54:35.810Z,71.11
2022-08-28T04:57:02.826Z,71.78
2022-08-28T04:59:33.292Z,72.11
2022-08-28T05:02:00.991Z,72.25
2022-08-28T05:04:27.902Z,71.92
2022-08-28T05:06:54.527Z,72.18
2022-08-28T05:09:21.699Z,72.20
2022-08-28T05:11:49.202Z,71.62
2022-08-28T05:14:16.548Z,72.40
2022-08-28T05:16:47.715Z,72.98
2022-08-28T05:19:16.689Z,71.33
2022-08-28T05:21:43.473Z,72.33
2022-08-28T05:24:10.126Z,71.19
2022-08-28T05:26:39.602Z,71.29
2022-08-28T05:29:08.405Z,71.94
2022-08-28T05:31:35.086Z,72.12
2022-08-28T05:34:02.021Z,70.82
2022-08-28T05:36:32.625Z,71.62
2022-08-28T05:39:01.461Z,71.27
2022-08-28T05:41:32.918Z,70.47
2022-08-28T05:44:02.500Z,70.73
2022-08-28T05:46:29.596Z,71.95
2022-08-28T05:48:57.201Z,71.34
2022-08-28T05:51:26.614Z,70.34
2022-08-28T05:53:55.205Z,71.17
2022-08-28T05:56:24.886Z,70.31
2022-08-28T05:58:52.035Z,69.83
2022-08-28T06:01:30.359Z,71.37
2022-08-28T06:04:01.831Z,69.97
2022-08-28T06:06:30.768Z,70.04
2022-08-28T06:09:03.354Z,70.27
2022-08-28T06:11:31.278Z,69.93
2022-08-28T06:14:03.269Z,69.29
2022-08-28T06:16:32.337Z,69.30
2022-08-28T06:19:00.520Z,69.60
2022-08-28T06:21:27.801Z,69.61
2022-08-28T06:23:54.510Z,68.40
2022-08-28T06:26:21.039Z,69.46
2022-08-28T06:28:47.714Z,67.97
2022-08-28T06:31:23.729Z,67.79
2022-08-28T06:33:54.026Z,67.96
2022-08-28T06:36:20.952Z,67.64
2022-08-28T06:38:47.523Z,68.17
2022-08-28T06:41:15.665Z,67.16
2022-08-28T06:43:42.565Z,67.82
2022-08-28T06:46:09.471Z,67.84
2022-08-28T06:48:36.281Z,66.55
2022-08-28T06:51:06.659Z,67.18
2022-08-28T06:53:33.534Z,66.50
2022-08-28T06:56:09.299Z,67.08
2022-08-28T06:58:38.346Z,67.23
2022-08-28T07:01:11.014Z,69.20
2022-08-28T07:03:42.726Z,67.98
2022-08-28T07:06:13.196Z,67.53
2022-08-28T07:08:41.476Z,67.49
2022-08-28T07:11:14.309Z,67.13
2022-08-28T07:13:42.212Z,67.85
2022-08-28T07:16:09.701Z,66.93
2022-08-28T07:18:37.061Z,66.93
2022-08-28T07:21:03.602Z,66.71
2022-08-28T07:23:32.177Z,67.61
2022-08-28T07:25:59.320Z,65.72
2022-08-28T07:28:26.162Z,64.98
2022-08-28T07:31:04.672Z,64.71
2022-08-28T07:33:32.937Z,63.56
2022-08-28T07:36:00.209Z,62.65
2022-08-28T07:38:27.469Z,62.81
2022-08-28T07:40:54.886Z,61.84
2022-08-28T07:43:40.240Z,61.92
2022-08-28T07:46:09.767Z,60.79
2022-08-28T07:48:37.498Z,61.17
2022-08-28T07:51:05.648Z,61.69
2022-08-28T07:53:36.230Z,59.47
2022-08-28T07:56:04.615Z,60.25
2022-08-28T07:58:32.112Z,58.71
2022-08-28T08:00:59.316Z,57.86
2022-08-28T08:03:25.956Z,59.48
2022-08-28T08:05:55.188Z,61.27
2022-08-28T08:08:22.493Z,58.53
2022-08-28T08:10:58.133Z,60.05
2022-08-28T08:13:26.014Z,59.85
2022-08-28T08:15:53.071Z,59.49
2022-08-28T08:18:19.685Z,57.44
2022-08-28T08:20:51.668Z,56.63
2022-08-28T08:23:18.207Z,54.54
2022-08-28T08:25:58.447Z,49.56
2022-08-28T08:28:25.540Z,49.37
2022-08-28T08:31:22.898Z,47.66
2022-08-28T08:33:52.293Z,47.46
2022-08-28T08:36:21.365Z,47.44
2022-08-28T08:38:48.723Z,46.38
2022-08-28T08:41:34.844Z,46.22
2022-08-28T08:44:23.955Z,49.05
2022-08-28T08:47:14.464Z,45.84
2022-08-28T08:50:11.040Z,40.98
2022-08-28T08:52:57.031Z,43.51
2022-08-28T08:55:27.718Z,47.38
2022-08-28T08:57:57.240Z,51.96
2022-08-28T09:00:23.896Z,46.09
2022-08-28T09:02:57.199Z,43.64
2022-08-28T09:05:38.068Z,44.33
2022-08-28T09:08:06.967Z,40.70
2022-08-28T09:10:55.082Z,44.30
2022-08-28T09:13:35.152Z,48.42
2022-08-28T09:16:06.217Z,47.24
2022-08-28T09:18:34.541Z,45.74
2022-08-28T09:21:01.230Z,45.50
2022-08-28T09:23:29.861Z,48.00
2022-08-28T09:26:01.877Z,46.71
2022-08-28T09:28:31.531Z,45.84
2022-08-28T09:31:09.220Z,45.47
2022-08-28T09:33:42.101Z,49.48
2022-08-28T09:36:31.543Z,47.18
2022-08-28T09:39:08.481Z,44.38
2022-08-28T09:42:20.122Z,41.34
2022-08-28T09:44:52.104Z,43.73
2022-08-28T09:47:46.769Z,41.31
2022-08-28T09:50:33.210Z,40.92
2022-08-28T09:53:16.804Z,38.85
2022-08-28T09:55:58.232Z,42.42
2022-08-28T09:58:33.729Z,38.78
2022-08-28T10:01:07.439Z,34.12
2022-08-28T10:03:44.288Z,38.60
2022-08-28T10:06:18.520Z,38.86
2022-08-28T10:08:57.369Z,38.37
2022-08-28T10:11:28.731Z,38.14
2022-08-28T10:14:13.739Z,38.71
2022-08-28T10:17:32.458Z,40.13
2022-08-28T10:20:24.512Z,36.50
2022-08-28T10:23:10.500Z,34.09
2022-08-28T10:25:53.587Z,33.50
2022-08-28T10:28:38.910Z,37.17
2022-08-28T10:31:22.598Z,34.95
2022-08-28T10:34:02.810Z,36.05
2022-08-28T10:36:33.973Z,33.87
2022-08-28T10:39:23.931Z,32.98
2022-08-28T10:42:01.181Z,35.39
2022-08-28T10:45:04.684Z,35.11
2022-08-28T10:47:35.012Z,33.12
2022-08-28T10:50:08.287Z,35.12
2022-08-28T10:52:47.383Z,35.87
2022-08-28T10:55:21.540Z,37.41
2022-08-28T10:57:53.262Z,39.30
2022-08-28T11:00:25.512Z,39.21
2022-08-28T11:02:58.481Z,36.85
2022-08-28T11:05:30.083Z,39.71
2022-08-28T11:08:05.292Z,38.45
2022-08-28T11:10:38.761Z,38.16
2022-08-28T11:13:07.238Z,38.14
2022-08-28T11:15:37.226Z,34.65
2022-08-28T11:18:16.344Z,31.81
2022-08-28T11:20:55.300Z,34.52
2022-08-28T11:23:31.815Z,33.00
2022-08-28T11:26:04.272Z,32.73
2022-08-28T11:28:36.907Z,35.79
2022-08-28T11:31:06.556Z,37.61
2022-08-28T11:33:52.399Z,40.11
2022-08-28T11:36:32.375Z,36.28
2022-08-28T11:39:14.140Z,35.19
2022-08-28T11:42:09.261Z,34.27
2022-08-28T11:44:42.281Z,35.67
2022-08-28T11:47:43.377Z,39.80
2022-08-28T11:50:31.007Z,40.49
2022-08-28T11:53:18.708Z,42.00
2022-08-28T11:56:04.252Z,41.93
2022-08-28T11:58:58.963Z,41.23
2022-08-28T12:01:35.529Z,41.74
2022-08-28T12:04:08.236Z,42.70
2022-08-28T12:07:17.218Z,41.49
2022-08-28T12:09:49.200Z,41.75
2022-08-28T12:12:21.583Z,40.87
2022-08-28T12:14:48.053Z,40.55
2022-08-28T12:17:25.202Z,40.08
2022-08-28T12:20:20.900Z,39.45
2022-08-28T12:22:52.884Z,39.69
2022-08-28T12:25:36.544Z,40.21
2022-08-28T12:28:31.850Z,39.00
2022-08-28T12:31:18.320Z,39.79
2022-08-28T12:34:16.070Z,40.08
2022-08-28T12:36:43.239Z,40.03
2022-08-28T12:39:18.183Z,40.94
2022-08-28T12:41:45.620Z,40.10
2022-08-28T12:44:15.484Z,41.04
2022-08-28T12:46:43.786Z,41.00
2022-08-28T12:49:35.007Z,40.23
2022-08-28T12:52:18.775Z,40.15
2022-08-28T12:54:46.398Z,41.50
2022-08-28T12:57:16.647Z,40.46
2022-08-28T12:59:46.683Z,42.16
2022-08-28T13:02:34.037Z,41.38
2022-08-28T13:05:05.553Z,41.06
2022-08-28T13:07:45.368Z,41.48
2022-08-28T13:10:25.509Z,41.46
2022-08-28T13:13:05.616Z,41.17
2022-08-28T13:15:52.607Z,40.43
2022-08-28T13:18:40.789Z,40.25
2022-08-28T13:21:15.239Z,40.50
2022-08-28T13:23:42.323Z,39.64
2022-08-28T13:26:10.805Z,39.60
2022-08-28T13:28:42.949Z,39.46
2022-08-28T13:31:35.613Z,39.36
2022-08-28T13:34:10.909Z,38.27
2022-08-28T13:36:55.634Z,39.16
2022-08-28T13:39:22.915Z,38.80
2022-08-28T13:41:56.275Z,38.66
2022-08-28T13:44:55.322Z,39.48
2022-08-28T13:47:21.983Z,39.38
2022-08-28T13:49:49.127Z,38.95
2022-08-28T13:52:15.856Z,39.05
2022-08-28T13:54:43.805Z,39.96
2022-08-28T13:57:13.478Z,39.51
2022-08-28T13:59:40.490Z,38.90
2022-08-28T14:02:29.195Z,39.12
2022-08-28T14:04:56.010Z,40.14
2022-08-28T14:07:23.116Z,39.99
2022-08-28T14:09:55.480Z,39.86
2022-08-28T14:12:23.053Z,38.51
2022-08-28T14:14:59.840Z,37.84
2022-08-28T14:17:26.492Z,39.32
2022-08-28T14:19:53.068Z,38.43
2022-08-28T14:22:19.614Z,39.11
2022-08-28T14:24:46.811Z,38.38
2022-08-28T14:27:13.372Z,39.16
2022-08-28T14:29:39.946Z,38.14
2022-08-28T14:32:06.665Z,38.06
2022-08-28T14:34:33.727Z,38.73
2022-08-28T14:37:01.722Z,37.89
2022-08-28T14:39:28.442Z,38.08
2022-08-28T14:41:55.132Z,37.52
2022-08-28T14:44:23.114Z,37.97
2022-08-28T14:46:50.245Z,37.89
2022-08-28T14:49:19.054Z,37.74
2022-08-28T14:51:46.817Z,37.75
2022-08-28T14:54:16.211Z,37.50
2022-08-28T14:56:44.165Z,37.00
2022-08-28T14:59:18.462Z,37.26
2022-08-28T15:01:48.927Z,37.56
2022-08-28T15:04:18.620Z,37.53
2022-08-28T15:06:45.754Z,38.80
2022-08-28T15:09:14.599Z,38.07
2022-08-28T15:11:42.250Z,37.64
2022-08-28T15:14:09.148Z,38.10
2022-08-28T15:16:39.886Z,38.96
2022-08-28T15:19:11.597Z,37.32
2022-08-28T15:21:42.534Z,37.01
2022-08-28T15:24:10.099Z,38.50
2022-08-28T15:26:37.240Z,38.51
2022-08-28T15:29:05.844Z,38.75
2022-08-28T15:31:37.738Z,38.29
2022-08-28T15:34:15.060Z,38.45
2022-08-28T15:36:43.791Z,37.87
2022-08-28T15:39:30.209Z,37.68
2022-08-28T15:41:57.492Z,38.49
2022-08-28T15:44:24.237Z,38.04
2022-08-28T15:47:00.937Z,37.78
2022-08-28T15:49:29.959Z,38.08
2022-08-28T15:51:59.211Z,38.39
2022-08-28T15:54:25.849Z,38.19
2022-08-28T15:56:52.798Z,37.83
2022-08-28T15:59:21.334Z,37.99
2022-08-28T16:01:50.814Z,39.25
2022-08-28T16:04:18.034Z,38.70
2022-08-28T16:06:45.282Z,39.41
2022-08-28T16:09:12.636Z,38.86
2022-08-28T16:11:42.506Z,39.55
2022-08-28T16:14:09.632Z,37.52
2022-08-28T16:16:36.208Z,38.62
2022-08-28T16:19:03.713Z,38.19
2022-08-28T16:21:31.072Z,38.25
2022-08-28T16:23:57.894Z,38.34
2022-08-28T16:26:24.751Z,38.97
2022-08-28T16:28:51.292Z,40.14
2022-08-28T16:31:19.947Z,39.60
2022-08-28T16:33:47.828Z,38.11
2022-08-28T16:36:15.211Z,39.57
2022-08-28T16:38:43.939Z,38.52
2022-08-28T16:41:16.237Z,38.96
2022-08-28T16:43:43.533Z,39.98
2022-08-28T16:46:12.780Z,40.61
2022-08-28T16:48:40.097Z,40.11
2022-08-28T16:51:07.725Z,39.37
2022-08-28T16:53:34.273Z,39.08
2022-08-28T16:56:00.889Z,39.30
2022-08-28T16:58:27.590Z,40.32
2022-08-28T17:00:54.973Z,41.12
2022-08-28T17:03:43.011Z,40.40
2022-08-28T17:06:19.869Z,40.19
2022-08-28T17:08:46.813Z,40.49
2022-08-28T17:11:13.863Z,41.75
2022-08-28T17:13:40.845Z,39.79
2022-08-28T17:16:08.321Z,40.66
2022-08-28T17:18:36.347Z,40.09
2022-08-28T17:21:22.525Z,40.48
2022-08-28T17:23:49.743Z,41.05
2022-08-28T17:26:21.366Z,40.16
2022-08-28T17:28:47.914Z,40.72
2022-08-28T17:31:14.875Z,41.17
2022-08-28T17:33:43.184Z,41.73
2022-08-28T17:36:21.274Z,40.77
2022-08-28T17:39:00.240Z,42.26
2022-08-28T17:41:27.388Z,41.31
2022-08-28T17:43:53.917Z,41.34
2022-08-28T17:46:20.500Z,41.09
2022-08-28T17:48:55.826Z,40.80
2022-08-28T17:51:42.768Z,41.11
2022-08-28T17:54:15.713Z,43.78
2022-08-28T17:56:42.676Z,42.35
2022-08-28T17:59:10.142Z,42.24
2022-08-28T18:01:38.476Z,42.73
2022-08-28T18:04:05.496Z,42.37
2022-08-28T18:06:35.183Z,42.21
2022-08-28T18:09:01.941Z,42.21
2022-08-28T18:11:28.967Z,43.04
2022-08-28T18:13:55.558Z,44.11
2022-08-28T18:16:22.217Z,43.72
2022-08-28T18:18:49.023Z,44.21
2022-08-28T18:21:15.575Z,43.67
2022-08-28T18:23:42.275Z,43.81
2022-08-28T18:26:09.542Z,45.13
2022-08-28T18:28:36.878Z,45.16
2022-08-28T18:31:06.049Z,45.30
2022-08-28T18:33:33.707Z,46.84
2022-08-28T18:36:00.353Z,45.02
2022-08-28T18:38:28.604Z,45.72
2022-08-28T18:40:55.777Z,47.73
2022-08-28T18:43:22.539Z,45.64
2022-08-28T18:45:49.570Z,45.46
2022-08-28T18:48:16.574Z,45.53
2022-08-28T18:50:46.280Z,47.25
2022-08-28T18:53:18.021Z,47.88
2022-08-28T18:55:45.865Z,47.08
2022-08-28T18:58:15.114Z,47.18
2022-08-28T19:00:43.556Z,47.07
2022-08-28T19:03:10.525Z,46.49
2022-08-28T19:05:38.147Z,47.79
2022-08-28T19:08:05.429Z,49.38
2022-08-28T19:10:34.301Z,48.91
2022-08-28T19:13:01.665Z,48.27
2022-08-28T19:15:28.988Z,49.20
2022-08-28T19:17:56.176Z,49.21
2022-08-28T19:20:22.905Z,48.28
2022-08-28T19:22:49.760Z,47.85
2022-08-28T19:25:28.565Z,50.32
2022-08-28T19:27:58.913Z,48.00
2022-08-28T19:30:29.036Z,49.27
2022-08-28T19:32:55.842Z,47.35
2022-08-28T19:35:24.606Z,49.30
2022-08-28T19:37:52.239Z,50.73
2022-08-28T19:40:20.623Z,51.30
2022-08-28T19:42:49.866Z,50.13
2022-08-28T19:45:16.834Z,49.77
2022-08-28T19:47:43.424Z,48.50
2022-08-28T19:50:12.813Z,49.40
2022-08-28T19:52:39.392Z,50.21
2022-08-28T19:55:07.315Z,49.89
2022-08-28T19:57:34.994Z,49.81
2022-08-28T20:00:02.096Z,52.12
2022-08-28T20:02:29.559Z,51.82
2022-08-28T20:04:56.232Z,51.57
2022-08-28T20:07:24.940Z,50.17
2022-08-28T20:09:52.194Z,49.91
2022-08-28T20:12:19.572Z,50.32
2022-08-28T20:14:46.377Z,52.20
2022-08-28T20:17:14.038Z,50.71
2022-08-28T20:19:41.194Z,49.96
2022-08-28T20:22:07.976Z,51.63
2022-08-28T20:24:34.995Z,51.73
2022-08-28T20:27:01.662Z,51.61
2022-08-28T20:29:28.494Z,50.67
2022-08-28T20:31:55.038Z,51.30
2022-08-28T20:34:23.983Z,53.22
2022-08-28T20:36:50.546Z,53.45
2022-08-28T20:39:18.453Z,53.59
2022-08-28T20:41:46.044Z,53.39
2022-08-28T20:44:15.417Z,53.54
2022-08-28T20:46:42.500Z,53.70
2022-08-28T20:49:14.168Z,52.11
2022-08-28T20:51:58.786Z,53.84
2022-08-28T20:54:30.305Z,54.53
2022-08-28T20:57:00.015Z,54.32
2022-08-28T20:59:33.441Z,55.00
2022-08-28T21:02:09.049Z,54.23
2022-08-28T21:04:41.016Z,54.92
2022-08-28T21:07:07.786Z,54.97
2022-08-28T21:10:03.783Z,54.40
2022-08-28T21:12:21.485Z,54.69
2022-08-28T21:14:52.280Z,54.74
2022-08-28T21:17:22.612Z,54.73
2022-08-28T21:19:57.427Z,51.42
2022-08-28T21:22:24.205Z,52.29
2022-08-28T21:24:50.955Z,51.85
2022-08-28T21:27:18.595Z,51.41
2022-08-28T21:29:45.857Z,51.76
2022-08-28T21:32:12.590Z,51.19
2022-08-28T21:34:39.204Z,51.11
2022-08-28T21:37:06.394Z,50.73
2022-08-28T21:39:33.462Z,50.99
2022-08-28T21:42:00.105Z,51.62
2022-08-28T21:44:26.661Z,50.87
2022-08-28T21:46:53.378Z,51.38
2022-08-28T21:49:20.351Z,50.78
2022-08-28T21:51:47.128Z,51.55
2022-08-28T21:54:13.808Z,52.31
2022-08-28T21:56:40.402Z,53.46
2022-08-28T21:59:06.923Z,54.14
2022-08-28T22:01:33.797Z,53.97
2022-08-28T22:04:00.327Z,52.88
2022-08-28T22:06:27.475Z,52.17
2022-08-28T22:08:55.727Z,53.99
2022-08-28T22:11:24.718Z,54.63
2022-08-28T22:13:55.868Z,52.98
2022-08-28T22:16:24.443Z,53.69
2022-08-28T22:18:51.443Z,53.84
2022-08-28T22:21:40.333Z,54.57
2022-08-28T22:24:08.566Z,54.37
2022-08-28T22:26:35.552Z,54.22
2022-08-28T22:29:02.186Z,54.55
2022-08-28T22:31:29.516Z,53.49
2022-08-28T22:33:56.106Z,54.61
2022-08-28T22:36:22.675Z,55.30
2022-08-28T22:38:53.602Z,55.49
2022-08-28T22:41:20.619Z,55.59
2022-08-28T22:43:51.259Z,55.10
2022-08-28T22:46:20.596Z,56.05
2022-08-28T22:48:47.994Z,56.47
2022-08-28T22:51:18.439Z,56.42
2022-08-28T22:53:46.732Z,57.41
2022-08-28T22:56:14.409Z,57.01
2022-08-28T22:58:40.963Z,57.79
2022-08-28T23:01:12.079Z,57.94
2022-08-28T23:03:38.943Z,58.54
2022-08-28T23:06:05.887Z,58.84
2022-08-28T23:08:34.192Z,59.42
2022-08-28T23:11:01.502Z,59.31
2022-08-28T23:13:29.656Z,59.32
2022-08-28T23:15:56.272Z,58.57
2022-08-28T23:18:22.804Z,58.74
2022-08-28T23:20:50.738Z,59.04
2022-08-28T23:23:18.927Z,59.96
2022-08-28T23:25:45.466Z,60.05
2022-08-28T23:28:12.446Z,60.53
2022-08-28T23:30:41.222Z,60.55
2022-08-28T23:33:18.555Z,60.64
2022-08-28T23:35:49.661Z,61.05
2022-08-28T23:38:16.424Z,60.99
2022-08-28T23:40:43.146Z,60.73
2022-08-28T23:43:10.229Z,62.05
2022-08-28T23:45:40.129Z,62.16
2022-08-28T23:48:07.253Z,62.31
2022-08-28T23:50:34.147Z,61.99
2022-08-28T23:53:01.339Z,61.42
2022-08-28T23:55:28.834Z,62.11
2022-08-28T23:57:55.647Z,62.28
